createdAt,value
2017-10-18T00:00:14.187Z,36.87
2017-10-18T00:02:42.637Z,33.97
2017-10-18T00:05:11.105Z,35.90
2017-10-18T00:07:40.350Z,33.90
2017-10-18T00:10:08.809Z,31.90
2017-10-18T00:12:37.313Z,32.57
2017-10-18T00:15:05.782Z,35.30
2017-10-18T00:17:34.229Z,31.57
2017-10-18T00:20:03.469Z,31.70
2017-10-18T00:22:31.927Z,33.93
2017-10-18T00:25:00.389Z,34.00
2017-10-18T00:27:29.597Z,33.20
2017-10-18T00:29:58.929Z,37.93
2017-10-18T00:32:27.374Z,34.10
2017-10-18T00:34:56.590Z,32.70
2017-10-18T00:37:25.053Z,34.03
2017-10-18T00:39:54.285Z,36.20
2017-10-18T00:42:22.752Z,35.50
2017-10-18T00:44:51.258Z,35.70
2017-10-18T00:47:19.725Z,34.00
2017-10-18T00:49:48.172Z,32.03
2017-10-18T00:52:16.641Z,33.80
2017-10-18T00:54:45.195Z,31.57
2017-10-18T00:57:13.666Z,31.80
2017-10-18T00:59:42.149Z,32.17
2017-10-18T01:02:10.634Z,32.10
2017-10-18T01:04:39.120Z,30.47
2017-10-18T01:07:07.570Z,33.93
2017-10-18T01:09:36.049Z,32.20
2017-10-18T01:12:05.263Z,32.27
2017-10-18T01:14:33.758Z,32.27
2017-10-18T01:17:02.214Z,31.77
2017-10-18T01:19:31.458Z,33.57
2017-10-18T01:21:59.897Z,29.63
2017-10-18T01:24:29.244Z,30.53
2017-10-18T01:26:57.707Z,26.90
2017-10-18T01:29:26.297Z,30.77
2017-10-18T01:31:54.741Z,31.37
2017-10-18T01:34:23.974Z,30.20
2017-10-18T01:36:52.417Z,28.23
2017-10-18T01:39:21.649Z,31.17
2017-10-18T01:41:50.105Z,30.33
2017-10-18T01:44:19.339Z,31.63
2017-10-18T01:46:47.811Z,30.93
2017-10-18T01:49:16.265Z,31.53
2017-10-18T01:51:45.598Z,27.47
2017-10-18T01:54:14.035Z,32.63
2017-10-18T01:56:43.265Z,30.53
2017-10-18T01:59:11.700Z,33.47
2017-10-18T02:01:40.170Z,34.07
2017-10-18T02:04:08.730Z,31.37
2017-10-18T02:06:37.311Z,30.43
2017-10-18T02:09:05.759Z,28.97
2017-10-18T02:11:35.002Z,29.20
2017-10-18T02:14:03.442Z,31.33
2017-10-18T02:16:32.674Z,28.57
2017-10-18T02:19:01.160Z,29.30
2017-10-18T02:21:29.605Z,27.83
2017-10-18T02:23:58.837Z,29.37
2017-10-18T02:26:27.293Z,29.20
2017-10-18T02:28:55.804Z,26.20
2017-10-18T02:31:24.278Z,27.73
2017-10-18T02:33:52.745Z,28.43
2017-10-18T02:36:21.208Z,30.97
2017-10-18T02:38:50.449Z,28.20
2017-10-18T02:41:18.933Z,30.13
2017-10-18T02:43:47.413Z,29.17
2017-10-18T02:46:15.891Z,25.87
2017-10-18T02:48:44.367Z,28.60
2017-10-18T02:51:12.809Z,26.90
2017-10-18T02:53:42.041Z,29.23
2017-10-18T02:56:10.486Z,27.20
2017-10-18T02:58:38.938Z,29.90
2017-10-18T03:01:07.499Z,28.60
2017-10-18T03:03:35.965Z,25.47
2017-10-18T03:06:04.473Z,29.60
2017-10-18T03:08:32.914Z,28.93
2017-10-18T03:11:02.151Z,28.13
2017-10-18T03:13:30.589Z,27.60
2017-10-18T03:15:59.934Z,28.80
2017-10-18T03:18:28.377Z,26.27
2017-10-18T03:20:57.595Z,28.23
2017-10-18T03:23:26.037Z,26.37
2017-10-18T03:25:54.510Z,27.93
2017-10-18T03:28:22.950Z,26.70
2017-10-18T03:30:51.436Z,27.27
2017-10-18T03:33:19.901Z,28.40
2017-10-18T03:35:48.343Z,27.60
2017-10-18T03:38:17.582Z,27.80
2017-10-18T03:40:46.025Z,27.47
2017-10-18T03:43:14.493Z,27.13
2017-10-18T03:45:43.051Z,27.20
2017-10-18T03:48:11.519Z,24.87
2017-10-18T03:50:39.977Z,25.80
2017-10-18T03:53:09.206Z,27.80
2017-10-18T03:55:37.658Z,26.97
2017-10-18T03:58:06.893Z,27.00
2017-10-18T04:00:35.343Z,25.80
2017-10-18T04:03:03.857Z,25.70
2017-10-18T04:05:32.433Z,24.57
2017-10-18T04:08:00.889Z,23.43
2017-10-18T04:10:30.227Z,26.70
2017-10-18T04:12:58.682Z,25.40
2017-10-18T04:15:27.194Z,24.60
2017-10-18T04:17:55.644Z,23.10
2017-10-18T04:20:24.114Z,24.20
2017-10-18T04:22:53.352Z,23.50
2017-10-18T04:25:21.918Z,24.70
2017-10-18T04:27:50.370Z,21.13
2017-10-18T04:30:19.718Z,23.03
2017-10-18T04:32:48.203Z,26.83
2017-10-18T04:35:16.669Z,25.17
2017-10-18T04:37:45.162Z,26.07
2017-10-18T04:40:13.614Z,21.87
2017-10-18T04:42:42.850Z,24.23
2017-10-18T04:45:11.288Z,21.17
2017-10-18T04:47:40.519Z,25.33
2017-10-18T04:50:09.004Z,25.97
2017-10-18T04:52:37.475Z,23.13
2017-10-18T04:55:05.922Z,25.17
2017-10-18T04:57:35.266Z,22.50
2017-10-18T05:00:03.711Z,21.60
2017-10-18T05:02:32.948Z,22.87
2017-10-18T05:05:01.393Z,24.47
2017-10-18T05:07:30.631Z,26.87
2017-10-18T05:09:59.097Z,22.80
2017-10-18T05:12:27.537Z,21.10
2017-10-18T05:14:56.005Z,22.00
2017-10-18T05:17:24.569Z,21.00
2017-10-18T05:19:53.038Z,19.77
2017-10-18T05:22:21.486Z,22.00
2017-10-18T05:24:50.833Z,22.43
2017-10-18T05:27:19.282Z,21.17
2017-10-18T05:29:47.785Z,22.33
2017-10-18T05:32:16.277Z,23.70
2017-10-18T05:34:44.746Z,21.03
2017-10-18T05:37:13.189Z,24.33
2017-10-18T05:39:42.421Z,22.23
2017-10-18T05:42:10.922Z,24.90
2017-10-18T05:44:39.370Z,21.83
2017-10-18T05:47:08.602Z,23.60
2017-10-18T05:49:37.053Z,23.20
2017-10-18T05:52:07.231Z,23.43
2017-10-18T05:54:35.668Z,23.30
2017-10-18T05:57:04.128Z,25.93
2017-10-18T05:59:33.340Z,23.80
2017-10-18T06:02:01.809Z,23.60
2017-10-18T06:04:31.016Z,23.77
2017-10-18T06:07:00.242Z,22.47
2017-10-18T06:09:28.721Z,21.87
2017-10-18T06:11:57.325Z,21.43
2017-10-18T06:14:25.767Z,22.37
2017-10-18T06:16:54.236Z,22.20
2017-10-18T06:19:23.458Z,19.53
2017-10-18T06:21:51.910Z,17.53
2017-10-18T06:24:21.145Z,19.00
2017-10-18T06:26:49.590Z,17.30
2017-10-18T06:29:18.817Z,18.00
2017-10-18T06:31:47.266Z,17.40
2017-10-18T06:34:15.733Z,17.40
2017-10-18T06:36:44.178Z,18.90
2017-10-18T06:39:12.648Z,16.43
2017-10-18T06:41:41.092Z,19.67
2017-10-18T06:44:09.553Z,18.03
2017-10-18T06:46:38.101Z,15.43
2017-10-18T06:49:06.587Z,16.57
2017-10-18T06:51:35.028Z,15.70
2017-10-18T06:54:04.379Z,16.47
2017-10-18T06:56:32.854Z,17.77
2017-10-18T06:59:01.299Z,16.70
2017-10-18T07:01:30.642Z,18.70
2017-10-18T07:03:59.084Z,19.63
2017-10-18T07:06:28.323Z,19.27
2017-10-18T07:08:56.812Z,18.67
2017-10-18T07:11:25.273Z,21.10
2017-10-18T07:13:53.723Z,18.83
2017-10-18T07:16:23.063Z,21.23
2017-10-18T07:18:51.509Z,19.17
2017-10-18T07:21:20.741Z,20.57
2017-10-18T07:23:49.187Z,18.87
2017-10-18T07:26:18.437Z,19.10
2017-10-18T07:28:46.913Z,17.30
2017-10-18T07:31:15.381Z,17.10
2017-10-18T07:33:43.879Z,18.93
2017-10-18T07:36:12.346Z,18.80
2017-10-18T07:38:40.842Z,17.47
2017-10-18T07:41:09.290Z,19.23
2017-10-18T07:43:38.518Z,17.23
2017-10-18T07:46:06.966Z,17.73
2017-10-18T07:48:36.298Z,19.93
2017-10-18T07:51:04.745Z,19.97
2017-10-18T07:53:33.977Z,18.63
2017-10-18T07:56:02.468Z,19.07
2017-10-18T07:58:31.042Z,18.93
2017-10-18T08:00:59.486Z,19.20
2017-10-18T08:03:28.721Z,18.43
2017-10-18T08:05:57.210Z,18.90
2017-10-18T08:08:25.697Z,18.77
2017-10-18T08:10:54.143Z,18.20
2017-10-18T08:13:22.664Z,18.43
2017-10-18T08:15:51.115Z,20.00
2017-10-18T08:18:19.609Z,20.40
2017-10-18T08:20:48.079Z,20.03
2017-10-18T08:23:16.526Z,20.60
2017-10-18T08:25:44.989Z,19.10
2017-10-18T08:28:13.425Z,19.97
2017-10-18T08:30:41.893Z,20.00
2017-10-18T08:33:11.131Z,17.10
2017-10-18T08:35:39.614Z,21.50
2017-10-18T08:38:08.058Z,20.77
2017-10-18T08:40:37.288Z,18.70
2017-10-18T08:43:05.728Z,19.10
2017-10-18T08:45:34.959Z,17.60
2017-10-18T08:48:03.458Z,23.50
2017-10-18T08:50:32.032Z,20.00
2017-10-18T08:53:00.473Z,19.00
2017-10-18T08:55:29.710Z,18.60
2017-10-18T08:57:58.571Z,16.50
2017-10-18T09:00:27.814Z,15.20
2017-10-18T09:02:56.274Z,13.40
2017-10-18T09:05:24.713Z,14.10
2017-10-18T09:07:53.260Z,15.97
2017-10-18T09:10:21.719Z,13.57
2017-10-18T09:12:50.218Z,12.23
2017-10-18T09:15:18.657Z,12.70
2017-10-18T09:17:47.885Z,12.53
2017-10-18T09:20:16.388Z,12.10
2017-10-18T09:22:44.971Z,14.20
2017-10-18T09:25:13.447Z,14.90
2017-10-18T09:27:41.913Z,14.87
2017-10-18T09:30:10.363Z,23.30
2017-10-18T09:32:39.630Z,22.10
2017-10-18T09:35:08.089Z,21.63
2017-10-18T09:37:36.581Z,35.33
2017-10-18T09:40:05.047Z,29.47
2017-10-18T09:42:33.484Z,23.37
2017-10-18T09:45:01.945Z,25.80
2017-10-18T09:47:30.386Z,21.53
2017-10-18T09:49:58.850Z,18.67
2017-10-18T09:52:28.057Z,16.27
2017-10-18T09:54:56.563Z,13.40
2017-10-18T09:57:25.050Z,13.33
2017-10-18T09:59:53.522Z,13.50
2017-10-18T10:02:21.978Z,13.03
2017-10-18T10:04:51.310Z,12.50
2017-10-18T10:07:19.794Z,12.83
2017-10-18T10:09:48.291Z,15.43
2017-10-18T10:12:16.733Z,15.40
2017-10-18T10:14:45.169Z,13.00
2017-10-18T10:17:13.638Z,9.67
2017-10-18T10:19:42.087Z,15.30
2017-10-18T10:22:10.590Z,12.53
2017-10-18T10:24:39.069Z,13.03
2017-10-18T10:27:07.532Z,12.07
2017-10-18T10:29:36.028Z,12.50
2017-10-18T10:32:04.497Z,10.60
2017-10-18T10:34:32.942Z,10.37
2017-10-18T10:37:01.412Z,11.33
2017-10-18T10:39:29.859Z,11.50
2017-10-18T10:41:58.331Z,11.60
2017-10-18T10:44:26.931Z,10.57
2017-10-18T10:46:55.394Z,10.57
2017-10-18T10:49:23.838Z,9.90
2017-10-18T10:51:54.005Z,9.90
2017-10-18T10:54:22.493Z,9.40
2017-10-18T10:56:50.970Z,9.07
2017-10-18T10:59:19.410Z,8.80
2017-10-18T11:01:49.615Z,9.60
2017-10-18T11:04:18.061Z,9.83
2017-10-18T11:06:46.535Z,8.00
2017-10-18T11:09:14.973Z,9.00
2017-10-18T11:11:44.181Z,7.93
2017-10-18T11:14:13.404Z,7.13
2017-10-18T11:16:41.838Z,6.83
2017-10-18T11:19:10.292Z,8.27
2017-10-18T11:21:38.733Z,8.90
2017-10-18T11:24:08.057Z,9.60
2017-10-18T11:26:36.493Z,8.97
2017-10-18T11:29:04.953Z,8.70
2017-10-18T11:31:33.512Z,10.17
2017-10-18T11:34:01.988Z,10.73
2017-10-18T11:36:30.430Z,10.43
2017-10-18T11:38:59.772Z,9.97
2017-10-18T11:41:28.362Z,10.63
2017-10-18T11:43:56.846Z,9.97
2017-10-18T11:46:25.320Z,9.93
2017-10-18T11:48:53.911Z,9.70
2017-10-18T11:51:23.122Z,9.37
2017-10-18T11:53:51.689Z,9.20
2017-10-18T11:56:20.133Z,10.53
2017-10-18T11:58:49.470Z,11.23
2017-10-18T12:01:17.916Z,8.60
2017-10-18T12:03:47.118Z,7.93
2017-10-18T12:06:16.345Z,7.07
2017-10-18T12:08:44.834Z,7.43
2017-10-18T12:11:13.381Z,6.43
2017-10-18T12:13:42.588Z,7.70
2017-10-18T12:16:12.027Z,6.20
2017-10-18T12:18:40.465Z,7.13
2017-10-18T12:21:09.689Z,6.33
2017-10-18T12:23:38.191Z,6.50
2017-10-18T12:26:06.650Z,5.77
2017-10-18T12:28:35.148Z,6.10
2017-10-18T12:31:03.610Z,6.57
2017-10-18T12:33:32.062Z,6.70
2017-10-18T12:36:00.632Z,7.00
2017-10-18T12:38:29.075Z,6.07
2017-10-18T12:40:57.660Z,7.10
2017-10-18T12:43:26.143Z,7.10
2017-10-18T12:45:54.619Z,6.73
2017-10-18T12:48:23.092Z,6.90
2017-10-18T12:50:51.566Z,6.23
2017-10-18T12:53:20.006Z,7.07
2017-10-18T12:55:48.450Z,5.70
2017-10-18T12:58:16.918Z,5.67
2017-10-18T13:00:45.357Z,6.80
2017-10-18T13:03:13.816Z,6.20
2017-10-18T13:05:42.252Z,6.70
2017-10-18T13:08:10.726Z,7.57
2017-10-18T13:10:39.941Z,7.00
2017-10-18T13:13:08.401Z,8.00
2017-10-18T13:15:37.605Z,7.10
2017-10-18T13:18:06.835Z,6.17
2017-10-18T13:20:35.280Z,7.67
2017-10-18T13:23:04.510Z,7.43
2017-10-18T13:25:33.005Z,6.50
2017-10-18T13:28:02.102Z,7.33
2017-10-18T13:30:30.573Z,6.80
2017-10-18T13:32:59.270Z,5.80
2017-10-18T13:35:27.752Z,6.57
2017-10-18T13:37:56.233Z,6.87
2017-10-18T13:40:24.698Z,5.97
2017-10-18T13:42:53.148Z,6.93
2017-10-18T13:45:22.377Z,7.60
2017-10-18T13:47:50.878Z,7.30
2017-10-18T13:50:19.337Z,7.00
2017-10-18T13:52:47.774Z,7.83
2017-10-18T13:55:16.237Z,7.60
2017-10-18T13:57:44.678Z,6.27
2017-10-18T14:00:13.141Z,6.97
2017-10-18T14:02:42.355Z,6.07
2017-10-18T14:05:10.974Z,6.47
2017-10-18T14:07:39.450Z,7.23
2017-10-18T14:10:07.910Z,6.70
2017-10-18T14:12:36.355Z,7.83
2017-10-18T14:15:04.891Z,7.30
2017-10-18T14:17:33.338Z,6.37
2017-10-18T14:20:02.681Z,8.40
2017-10-18T14:22:31.139Z,6.23
2017-10-18T14:24:59.646Z,7.47
2017-10-18T14:27:28.128Z,9.03
2017-10-18T14:29:56.589Z,7.27
2017-10-18T14:32:25.087Z,6.90
2017-10-18T14:34:53.526Z,7.57
2017-10-18T14:37:22.753Z,6.63
2017-10-18T14:39:51.255Z,7.70
2017-10-18T14:42:19.717Z,7.33
2017-10-18T14:44:48.162Z,9.40
2017-10-18T14:47:17.410Z,7.57
2017-10-18T14:49:45.888Z,7.77
2017-10-18T14:52:14.348Z,8.30
2017-10-18T14:54:43.549Z,9.53
2017-10-18T14:57:12.010Z,8.87
2017-10-18T14:59:41.262Z,7.87
2017-10-18T15:02:09.722Z,9.27
2017-10-18T15:04:38.181Z,7.37
2017-10-18T15:07:07.405Z,7.73
2017-10-18T15:09:35.853Z,7.63
2017-10-18T15:12:05.088Z,6.17
2017-10-18T15:14:33.597Z,7.73
2017-10-18T15:17:02.076Z,9.30
2017-10-18T15:19:30.529Z,8.00
2017-10-18T15:21:59.017Z,7.60
2017-10-18T15:24:27.461Z,7.73
2017-10-18T15:26:56.671Z,7.03
2017-10-18T15:29:25.897Z,7.40
2017-10-18T15:31:54.342Z,8.90
2017-10-18T15:34:23.573Z,9.00
2017-10-18T15:36:52.019Z,10.40
2017-10-18T15:39:36.532Z,8.77
2017-10-18T15:42:05.801Z,9.20
2017-10-18T15:44:35.129Z,10.60
2017-10-18T15:47:04.433Z,10.63
2017-10-18T15:49:32.893Z,9.30
2017-10-18T15:52:01.333Z,11.57
2017-10-18T15:54:29.806Z,10.47
2017-10-18T15:56:58.353Z,9.90
2017-10-18T15:59:26.827Z,8.77
2017-10-18T16:01:55.267Z,10.10
2017-10-18T16:04:23.729Z,9.30
2017-10-18T16:06:52.181Z,9.60
2017-10-18T16:09:20.665Z,10.40
2017-10-18T16:11:49.105Z,11.13
2017-10-18T16:14:18.446Z,12.93
2017-10-18T16:16:46.893Z,10.90
2017-10-18T16:19:16.110Z,12.97
2017-10-18T16:21:44.574Z,13.13
2017-10-18T16:24:13.789Z,11.60
2017-10-18T16:26:42.291Z,11.83
2017-10-18T16:29:10.734Z,10.80
2017-10-18T16:31:39.961Z,12.00
2017-10-18T16:34:08.405Z,13.47
2017-10-18T16:36:36.935Z,15.77
2017-10-18T16:39:05.380Z,16.70
2017-10-18T16:41:33.867Z,16.77
2017-10-18T16:44:03.069Z,18.13
2017-10-18T16:46:32.404Z,16.80
2017-10-18T16:49:00.851Z,16.40
2017-10-18T16:51:30.086Z,17.90
2017-10-18T16:53:58.568Z,18.10
2017-10-18T16:56:27.151Z,18.23
2017-10-18T16:58:55.597Z,18.27
2017-10-18T17:01:24.811Z,14.67
2017-10-18T17:03:53.309Z,15.87
2017-10-18T17:06:21.758Z,16.30
2017-10-18T17:08:50.991Z,15.67
2017-10-18T17:11:19.469Z,19.70
2017-10-18T17:13:47.945Z,16.40
2017-10-18T17:16:16.396Z,15.43
2017-10-18T17:18:45.625Z,14.93
2017-10-18T17:21:14.081Z,14.23
2017-10-18T17:23:43.419Z,15.90
2017-10-18T17:26:11.901Z,15.10
2017-10-18T17:28:40.490Z,15.87
2017-10-18T17:31:08.929Z,15.30
2017-10-18T17:33:38.166Z,18.10
2017-10-18T17:36:06.613Z,15.93
2017-10-18T17:38:35.875Z,15.43
2017-10-18T17:41:04.438Z,15.40
2017-10-18T17:43:32.886Z,13.50
2017-10-18T17:46:02.122Z,15.87
2017-10-18T17:48:30.587Z,14.57
2017-10-18T17:50:59.069Z,15.70
2017-10-18T17:53:27.565Z,14.60
2017-10-18T17:55:56.034Z,15.73
2017-10-18T17:58:24.485Z,17.47
2017-10-18T18:00:53.714Z,21.50
2017-10-18T18:03:22.210Z,23.97
2017-10-18T18:05:50.694Z,24.77
2017-10-18T18:08:19.137Z,24.83
2017-10-18T18:10:48.474Z,19.23
2017-10-18T18:13:16.917Z,22.00
2017-10-18T18:15:46.253Z,25.30
2017-10-18T18:18:14.706Z,25.60
2017-10-18T18:20:43.965Z,25.30
2017-10-18T18:23:12.410Z,28.63
2017-10-18T18:25:40.865Z,25.57
2017-10-18T18:28:10.095Z,23.80
2017-10-18T18:30:38.537Z,26.40
2017-10-18T18:33:07.770Z,28.07
2017-10-18T18:35:36.210Z,29.17
2017-10-18T18:38:05.451Z,27.57
2017-10-18T18:40:33.898Z,25.37
2017-10-18T18:43:03.144Z,26.63
2017-10-18T18:45:31.585Z,25.07
2017-10-18T18:48:00.819Z,27.67
2017-10-18T18:50:29.258Z,25.50
2017-10-18T18:52:58.494Z,26.07
2017-10-18T18:55:26.954Z,23.57
2017-10-18T18:57:56.192Z,24.50
2017-10-18T19:00:24.668Z,24.63
2017-10-18T19:02:53.129Z,24.20
2017-10-18T19:05:21.584Z,26.10
2017-10-18T19:07:50.813Z,25.97
2017-10-18T19:10:19.260Z,23.47
2017-10-18T19:12:48.512Z,25.30
2017-10-18T19:15:16.953Z,24.80
2017-10-18T19:17:46.181Z,23.83
2017-10-18T19:20:14.621Z,22.33
2017-10-18T19:22:43.868Z,21.90
2017-10-18T19:25:12.322Z,19.70
2017-10-18T19:27:41.549Z,22.23
2017-10-18T19:30:10.035Z,20.53
2017-10-18T19:32:38.519Z,21.33
2017-10-18T19:35:06.985Z,20.27
2017-10-18T19:37:35.430Z,20.60
2017-10-18T19:40:04.665Z,18.70
2017-10-18T19:42:33.165Z,20.37
2017-10-18T19:45:01.747Z,21.23
2017-10-18T19:47:30.189Z,19.30
2017-10-18T19:49:59.428Z,18.00
2017-10-18T19:52:27.870Z,18.63
2017-10-18T19:54:57.211Z,19.33
2017-10-18T19:57:25.649Z,19.73
2017-10-18T19:59:54.882Z,19.33
2017-10-18T20:02:23.365Z,17.33
2017-10-18T20:04:51.878Z,19.80
2017-10-18T20:07:20.326Z,17.77
2017-10-18T20:09:48.820Z,18.20
2017-10-18T20:12:17.285Z,17.40
2017-10-18T20:14:45.731Z,17.97
2017-10-18T20:17:14.965Z,19.80
2017-10-18T20:19:43.413Z,18.30
2017-10-18T20:22:12.651Z,19.20
2017-10-18T20:24:41.141Z,18.67
2017-10-18T20:27:09.633Z,18.80
2017-10-18T20:29:38.110Z,18.70
2017-10-18T20:32:06.573Z,15.53
2017-10-18T20:34:35.008Z,18.57
2017-10-18T20:37:03.483Z,19.37
2017-10-18T20:39:31.936Z,20.13
2017-10-18T20:42:00.442Z,19.20
2017-10-18T20:44:28.884Z,19.30
2017-10-18T20:46:57.373Z,19.13
2017-10-18T20:49:25.864Z,19.10
2017-10-18T20:51:54.309Z,18.20
2017-10-18T20:54:23.639Z,18.80
2017-10-18T20:56:52.089Z,20.90
2017-10-18T20:59:21.323Z,20.10
2017-10-18T21:01:49.800Z,23.70
2017-10-18T21:04:18.265Z,20.83
2017-10-18T21:06:46.710Z,20.40
2017-10-18T21:09:15.189Z,20.23
2017-10-18T21:11:43.637Z,20.93
2017-10-18T21:14:12.215Z,20.47
2017-10-18T21:16:40.702Z,21.10
2017-10-18T21:19:09.165Z,20.60
2017-10-18T21:21:37.657Z,21.20
2017-10-18T21:24:06.137Z,21.30
2017-10-18T21:26:34.583Z,20.90
2017-10-18T21:29:03.809Z,20.60
2017-10-18T21:31:32.262Z,23.03
2017-10-18T21:34:01.487Z,20.90
2017-10-18T21:36:29.934Z,20.60
2017-10-18T21:38:58.400Z,23.70
2017-10-18T21:41:26.910Z,21.30
2017-10-18T21:43:56.104Z,19.37
2017-10-18T21:46:25.560Z,22.27
2017-10-18T21:48:54.010Z,19.90
2017-10-18T21:51:23.332Z,20.27
2017-10-18T21:53:51.828Z,20.10
2017-10-18T21:56:20.300Z,18.80
2017-10-18T21:58:48.752Z,17.30
2017-10-18T22:01:17.976Z,18.80
2017-10-18T22:03:46.419Z,18.93
2017-10-18T22:06:15.663Z,17.83
2017-10-18T22:08:44.154Z,18.27
2017-10-18T22:11:12.734Z,17.47
2017-10-18T22:13:41.212Z,18.23
2017-10-18T22:16:09.680Z,17.87
2017-10-18T22:18:38.118Z,18.47
2017-10-18T22:21:06.613Z,16.50
2017-10-18T22:23:35.822Z,17.00
2017-10-18T22:26:05.062Z,16.67
2017-10-18T22:28:33.529Z,15.40
2017-10-18T22:31:01.966Z,16.10
2017-10-18T22:33:31.205Z,19.70
2017-10-18T22:35:59.646Z,21.30
2017-10-18T22:38:28.182Z,17.50
2017-10-18T22:40:56.629Z,18.10
2017-10-18T22:43:25.868Z,20.47
2017-10-18T22:45:54.318Z,20.93
2017-10-18T22:48:23.550Z,20.20
2017-10-18T22:50:51.997Z,20.87
2017-10-18T22:53:21.332Z,21.93
2017-10-18T22:55:49.811Z,23.80
2017-10-18T22:58:18.340Z,23.30
2017-10-18T23:00:46.880Z,23.10
2017-10-18T23:03:15.364Z,24.23
2017-10-18T23:05:43.838Z,20.70
2017-10-18T23:08:12.327Z,21.60
2017-10-18T23:10:40.900Z,22.30
2017-10-18T23:13:09.344Z,24.00
2017-10-18T23:15:38.695Z,24.63
2017-10-18T23:18:07.177Z,25.83
2017-10-18T23:20:35.645Z,21.90
2017-10-18T23:23:04.101Z,24.90
2017-10-18T23:25:32.586Z,25.17
2017-10-18T23:28:01.798Z,21.77
2017-10-18T23:30:30.304Z,22.90
2017-10-18T23:32:58.777Z,20.50
2017-10-18T23:35:27.263Z,21.63
2017-10-18T23:37:55.708Z,24.00
2017-10-18T23:40:24.948Z,22.20
2017-10-18T23:42:53.398Z,22.80
2017-10-18T23:45:22.634Z,21.63
2017-10-18T23:47:51.076Z,20.00
2017-10-18T23:50:20.406Z,22.50
2017-10-18T23:52:54.195Z,22.67
2017-10-18T23:55:22.657Z,20.00
2017-10-18T23:57:51.868Z,19.20
